PWSweather.com
Personal Weather Stations
Station Observations
719732
Ponferrada, PonferradaES 24411

PonferradaPonferradaES 24411

Lat: 42.5728, Lon: -6.6425

Elevation: 1676

Station Type: PCE-FWS 20 con garita Ambient Weather SRS100LX

www.meteo.spyfly.es

High Low Average
Temperature 94.6°F34.8°C 50.2°F10.1°C 71.3°F21.8°C
Dew Point 56.3°F13.5°C 38.9°F3.8°C 50.2°F10.1°C
Winds 19.7 mph 31.7 kmh Calm Calm 3.0 mph S4.8 kmh S
Wind Gusts 28.2 mph45.4 kmh 0.7 mph1.1 kmh 7.0 mph11.3 kmh
Humidity 94% 15% 54%
Pressure 30.35 in1027.8 mb 30.14 in1020.7 mb -
Precipitation 0.00 in0.0 mm - -
Hour Temp Dew Point Humidity Winds Wind Gusts Pressure Precip Precip Rate Daily Precip Total
12:00 AM 61.2°F16.2°C 50.5°F10.3°C 68% 0.7 mph ESE1.1 kmh ESE 3.8 mph6.1 kmh 30.33 in1027.1 mb 0.00 in0.0 mm 0.00 in0.0 mm 0.00 in0.0 mm
12:05 AM 61.2°F16.2°C 50.5°F10.3°C 68% 0.7 mph E1.1 kmh E 3.8 mph6.1 kmh 30.32 in1026.8 mb 0.00 in0.0 mm 0.00 in0.0 mm 0.00 in0.0 mm
12:10 AM 61.0°F16.1°C 50.8°F10.4°C 69% 1.6 mph ENE2.6 kmh ENE 2.2 mph3.5 kmh 30.32 in1026.8 mb 0.00 in0.0 mm 0.00 in0.0 mm 0.00 in0.0 mm
12:15 AM 60.6°F15.9°C 50.8°F10.4°C 70% 0.7 mph NNE1.1 kmh NNE 2.2 mph3.5 kmh 30.33 in1027.1 mb 0.00 in0.0 mm 0.00 in0.0 mm 0.00 in0.0 mm
12:20 AM 60.1°F15.6°C 51.0°F10.6°C 72% 0.7 mph N1.1 kmh N 2.2 mph3.5 kmh 30.33 in1027.1 mb 0.00 in0.0 mm 0.00 in0.0 mm 0.00 in0.0 mm
12:25 AM 59.9°F15.5°C 51.2°F10.7°C 73% 0.7 mph NNW1.1 kmh NNW 1.6 mph2.6 kmh 30.32 in1026.8 mb 0.00 in0.0 mm 0.00 in0.0 mm 0.00 in0.0 mm
12:30 AM 59.7°F15.4°C 51.1°F10.6°C 73% 0.7 mph NW1.1 kmh NW 2.2 mph3.5 kmh 30.33 in1027.1 mb 0.00 in0.0 mm 0.00 in0.0 mm 0.00 in0.0 mm
12:35 AM 59.4°F15.2°C 50.7°F10.4°C 73% Calm Calm 2.2 mph3.5 kmh 30.33 in1027.1 mb 0.00 in0.0 mm 0.00 in0.0 mm 0.00 in0.0 mm
12:40 AM 59.0°F15.0°C 50.7°F10.4°C 74% Calm Calm 2.2 mph3.5 kmh 30.33 in1027.1 mb 0.00 in0.0 mm 0.00 in0.0 mm 0.00 in0.0 mm
12:45 AM 58.8°F14.9°C 50.9°F10.5°C 75% 1.6 mph SSW2.6 kmh SSW 3.1 mph5.0 kmh 30.33 in1027.1 mb 0.00 in0.0 mm 0.00 in0.0 mm 0.00 in0.0 mm
12:50 AM 58.6°F14.8°C 50.8°F10.4°C 75% 0.7 mph S1.1 kmh S 3.1 mph5.0 kmh 30.33 in1027.1 mb 0.00 in0.0 mm 0.00 in0.0 mm 0.00 in0.0 mm
12:55 AM 59.2°F15.1°C 50.9°F10.5°C 74% 3.1 mph SE5.0 kmh SE 3.8 mph6.1 kmh 30.33 in1027.1 mb 0.00 in0.0 mm 0.00 in0.0 mm 0.00 in0.0 mm
01:00 AM 59.4°F15.2°C 51.1°F10.6°C 74% 1.6 mph ESE2.6 kmh ESE 3.8 mph6.1 kmh 30.33 in1027.1 mb 0.00 in0.0 mm 0.00 in0.0 mm 0.00 in0.0 mm
01:05 AM 59.4°F15.2°C 51.1°F10.6°C 74% 1.6 mph E2.6 kmh E 3.8 mph6.1 kmh 30.33 in1027.1 mb 0.00 in0.0 mm 0.00 in0.0 mm 0.00 in0.0 mm
01:10 AM 59.0°F15.0°C 50.4°F10.2°C 73% 1.6 mph NE2.6 kmh NE 2.2 mph3.5 kmh 30.33 in1027.1 mb 0.00 in0.0 mm 0.00 in0.0 mm 0.00 in0.0 mm
01:15 AM 58.8°F14.9°C 50.6°F10.3°C 74% 2.2 mph ESE3.5 kmh ESE 3.1 mph5.0 kmh 30.33 in1027.1 mb 0.00 in0.0 mm 0.00 in0.0 mm 0.00 in0.0 mm
01:20 AM 58.8°F14.9°C 50.6°F10.3°C 74% 0.7 mph ESE1.1 kmh ESE 3.1 mph5.0 kmh 30.33 in1027.1 mb 0.00 in0.0 mm 0.00 in0.0 mm 0.00 in0.0 mm
01:25 AM 58.6°F14.8°C 50.4°F10.2°C 74% 2.2 mph ESE3.5 kmh ESE 3.1 mph5.0 kmh 30.33 in1027.1 mb 0.00 in0.0 mm 0.00 in0.0 mm 0.00 in0.0 mm
01:30 AM 58.6°F14.8°C 50.8°F10.4°C 75% 0.7 mph E1.1 kmh E 3.1 mph5.0 kmh 30.33 in1027.1 mb 0.00 in0.0 mm 0.00 in0.0 mm 0.00 in0.0 mm
01:35 AM 58.3°F14.6°C 50.4°F10.2°C 75% 2.2 mph NE3.5 kmh NE 3.1 mph5.0 kmh 30.34 in1027.4 mb 0.00 in0.0 mm 0.00 in0.0 mm 0.00 in0.0 mm
01:40 AM 57.9°F14.4°C 50.4°F10.2°C 76% 0.7 mph E1.1 kmh E 3.1 mph5.0 kmh 30.34 in1027.4 mb 0.00 in0.0 mm 0.00 in0.0 mm 0.00 in0.0 mm
01:45 AM 57.6°F14.2°C 50.1°F10.1°C 76% 0.7 mph NE1.1 kmh NE 3.1 mph5.0 kmh 30.34 in1027.4 mb 0.00 in0.0 mm 0.00 in0.0 mm 0.00 in0.0 mm
01:50 AM 57.2°F14.0°C 50.1°F10.1°C 77% 1.6 mph N2.6 kmh N 2.2 mph3.5 kmh 30.33 in1027.1 mb 0.00 in0.0 mm 0.00 in0.0 mm 0.00 in0.0 mm
01:55 AM 56.8°F13.8°C 50.1°F10.1°C 78% Calm Calm 2.2 mph3.5 kmh 30.34 in1027.4 mb 0.00 in0.0 mm 0.00 in0.0 mm 0.00 in0.0 mm
02:00 AM 56.5°F13.6°C 50.1°F10.1°C 79% 1.6 mph NW2.6 kmh NW 2.2 mph3.5 kmh 30.34 in1027.4 mb 0.00 in0.0 mm 0.00 in0.0 mm 0.00 in0.0 mm
02:05 AM 56.3°F13.5°C 50.2°F10.1°C 80% Calm Calm 2.2 mph3.5 kmh 30.34 in1027.4 mb 0.00 in0.0 mm 0.00 in0.0 mm 0.00 in0.0 mm
02:10 AM 55.9°F13.3°C 49.9°F9.9°C 80% 0.7 mph ENE1.1 kmh ENE 2.2 mph3.5 kmh 30.34 in1027.4 mb 0.00 in0.0 mm 0.00 in0.0 mm 0.00 in0.0 mm
02:15 AM 55.8°F13.2°C 50.0°F10.0°C 81% 0.7 mph NNW1.1 kmh NNW 1.6 mph2.6 kmh 30.33 in1027.1 mb 0.00 in0.0 mm 0.00 in0.0 mm 0.00 in0.0 mm
02:20 AM 55.6°F13.1°C 49.9°F9.9°C 81% 0.7 mph NE1.1 kmh NE 3.1 mph5.0 kmh 30.34 in1027.4 mb 0.00 in0.0 mm 0.00 in0.0 mm 0.00 in0.0 mm
02:25 AM 55.6°F13.1°C 50.2°F10.1°C 82% 1.6 mph E2.6 kmh E 3.1 mph5.0 kmh 30.34 in1027.4 mb 0.00 in0.0 mm 0.00 in0.0 mm 0.00 in0.0 mm
02:30 AM 55.4°F13.0°C 50.0°F10.0°C 82% 1.6 mph E2.6 kmh E 2.2 mph3.5 kmh 30.34 in1027.4 mb 0.00 in0.0 mm 0.00 in0.0 mm 0.00 in0.0 mm
02:35 AM 55.2°F12.9°C 49.8°F9.9°C 82% 2.2 mph E3.5 kmh E 3.1 mph5.0 kmh 30.33 in1027.1 mb 0.00 in0.0 mm 0.00 in0.0 mm 0.00 in0.0 mm
02:40 AM 55.2°F12.9°C 50.2°F10.1°C 83% 2.2 mph ESE3.5 kmh ESE 3.8 mph6.1 kmh 30.33 in1027.1 mb 0.00 in0.0 mm 0.00 in0.0 mm 0.00 in0.0 mm
02:45 AM 55.4°F13.0°C 50.3°F10.2°C 83% 3.1 mph SE5.0 kmh SE 3.8 mph6.1 kmh 30.33 in1027.1 mb 0.00 in0.0 mm 0.00 in0.0 mm 0.00 in0.0 mm
02:50 AM 55.6°F13.1°C 50.5°F10.3°C 83% 3.1 mph ESE5.0 kmh ESE 3.8 mph6.1 kmh 30.34 in1027.4 mb 0.00 in0.0 mm 0.00 in0.0 mm 0.00 in0.0 mm
02:55 AM 55.6°F13.1°C 50.2°F10.1°C 82% 2.2 mph E3.5 kmh E 3.8 mph6.1 kmh 30.33 in1027.1 mb 0.00 in0.0 mm 0.00 in0.0 mm 0.00 in0.0 mm
03:00 AM 55.9°F13.3°C 50.5°F10.3°C 82% 0.7 mph SE1.1 kmh SE 3.8 mph6.1 kmh 30.34 in1027.4 mb 0.00 in0.0 mm 0.00 in0.0 mm 0.00 in0.0 mm
03:05 AM 55.9°F13.3°C 50.5°F10.3°C 82% 0.7 mph SE1.1 kmh SE 3.1 mph5.0 kmh 30.34 in1027.4 mb 0.00 in0.0 mm 0.00 in0.0 mm 0.00 in0.0 mm
03:10 AM 55.9°F13.3°C 49.9°F9.9°C 80% 0.7 mph ESE1.1 kmh ESE 1.6 mph2.6 kmh 30.33 in1027.1 mb 0.00 in0.0 mm 0.00 in0.0 mm 0.00 in0.0 mm
03:15 AM 55.8°F13.2°C 49.7°F9.8°C 80% 1.6 mph E2.6 kmh E 3.1 mph5.0 kmh 30.33 in1027.1 mb 0.00 in0.0 mm 0.00 in0.0 mm 0.00 in0.0 mm
03:20 AM 55.6°F13.1°C 49.5°F9.7°C 80% 0.7 mph SE1.1 kmh SE 3.1 mph5.0 kmh 30.33 in1027.1 mb 0.00 in0.0 mm 0.00 in0.0 mm 0.00 in0.0 mm
03:25 AM 55.6°F13.1°C 49.5°F9.7°C 80% 0.7 mph SE1.1 kmh SE 2.2 mph3.5 kmh 30.33 in1027.1 mb 0.00 in0.0 mm 0.00 in0.0 mm 0.00 in0.0 mm
03:30 AM 55.4°F13.0°C 49.3°F9.6°C 80% Calm Calm 2.2 mph3.5 kmh 30.34 in1027.4 mb 0.00 in0.0 mm 0.00 in0.0 mm 0.00 in0.0 mm
03:35 AM 55.2°F12.9°C 49.5°F9.7°C 81% 0.7 mph NE1.1 kmh NE 2.2 mph3.5 kmh 30.34 in1027.4 mb 0.00 in0.0 mm 0.00 in0.0 mm 0.00 in0.0 mm
03:40 AM 54.9°F12.7°C 49.5°F9.7°C 82% Calm Calm 2.2 mph3.5 kmh 30.34 in1027.4 mb 0.00 in0.0 mm 0.00 in0.0 mm 0.00 in0.0 mm
03:45 AM 54.5°F12.5°C 49.1°F9.5°C 82% 0.7 mph N1.1 kmh N 1.6 mph2.6 kmh 30.33 in1027.1 mb 0.00 in0.0 mm 0.00 in0.0 mm 0.00 in0.0 mm
03:50 AM 54.3°F12.4°C 49.3°F9.6°C 83% 0.7 mph WNW1.1 kmh WNW 2.2 mph3.5 kmh 30.34 in1027.4 mb 0.00 in0.0 mm 0.00 in0.0 mm 0.00 in0.0 mm
03:55 AM 54.3°F12.4°C 49.3°F9.6°C 83% 0.7 mph W1.1 kmh W 2.2 mph3.5 kmh 30.33 in1027.1 mb 0.00 in0.0 mm 0.00 in0.0 mm 0.00 in0.0 mm
04:00 AM 54.0°F12.2°C 48.9°F9.4°C 83% Calm Calm 2.2 mph3.5 kmh 30.34 in1027.4 mb 0.00 in0.0 mm 0.00 in0.0 mm 0.00 in0.0 mm
04:05 AM 53.8°F12.1°C 48.7°F9.3°C 83% 1.6 mph NW2.6 kmh NW 3.1 mph5.0 kmh 30.34 in1027.4 mb 0.00 in0.0 mm 0.00 in0.0 mm 0.00 in0.0 mm
04:10 AM 54.0°F12.2°C 49.2°F9.6°C 84% 0.7 mph SW1.1 kmh SW 3.1 mph5.0 kmh 30.34 in1027.4 mb 0.00 in0.0 mm 0.00 in0.0 mm 0.00 in0.0 mm
04:15 AM 54.1°F12.3°C 49.1°F9.5°C 83% Calm Calm 3.1 mph5.0 kmh 30.34 in1027.4 mb 0.00 in0.0 mm 0.00 in0.0 mm 0.00 in0.0 mm
04:20 AM 54.1°F12.3°C 49.1°F9.5°C 83% Calm Calm 2.2 mph3.5 kmh 30.34 in1027.4 mb 0.00 in0.0 mm 0.00 in0.0 mm 0.00 in0.0 mm
04:25 AM 54.0°F12.2°C 48.9°F9.4°C 83% Calm Calm 2.2 mph3.5 kmh 30.35 in1027.8 mb 0.00 in0.0 mm 0.00 in0.0 mm 0.00 in0.0 mm
04:30 AM 53.8°F12.1°C 48.7°F9.3°C 83% 1.6 mph NNW2.6 kmh NNW 3.1 mph5.0 kmh 30.34 in1027.4 mb 0.00 in0.0 mm 0.00 in0.0 mm 0.00 in0.0 mm
04:35 AM 53.6°F12.0°C 48.9°F9.4°C 84% 0.7 mph NNW1.1 kmh NNW 3.1 mph5.0 kmh 30.35 in1027.8 mb 0.00 in0.0 mm 0.00 in0.0 mm 0.00 in0.0 mm
04:40 AM 53.6°F12.0°C 48.9°F9.4°C 84% Calm Calm 2.2 mph3.5 kmh 30.34 in1027.4 mb 0.00 in0.0 mm 0.00 in0.0 mm 0.00 in0.0 mm
04:45 AM 53.4°F11.9°C 49.0°F9.4°C 85% 1.6 mph E2.6 kmh E 2.2 mph3.5 kmh 30.34 in1027.4 mb 0.00 in0.0 mm 0.00 in0.0 mm 0.00 in0.0 mm
04:50 AM 53.4°F11.9°C 49.3°F9.6°C 86% 3.1 mph E5.0 kmh E 4.5 mph7.2 kmh 30.34 in1027.4 mb 0.00 in0.0 mm 0.00 in0.0 mm 0.00 in0.0 mm
04:55 AM 53.4°F11.9°C 49.3°F9.6°C 86% 2.2 mph E3.5 kmh E 4.5 mph7.2 kmh 30.35 in1027.8 mb 0.00 in0.0 mm 0.00 in0.0 mm 0.00 in0.0 mm
05:00 AM 53.4°F11.9°C 49.3°F9.6°C 86% 2.2 mph ESE3.5 kmh ESE 4.5 mph7.2 kmh 30.34 in1027.4 mb 0.00 in0.0 mm 0.00 in0.0 mm 0.00 in0.0 mm
05:05 AM 53.6°F12.0°C 49.2°F9.6°C 85% Calm Calm 4.5 mph7.2 kmh 30.34 in1027.4 mb 0.00 in0.0 mm 0.00 in0.0 mm 0.00 in0.0 mm
05:10 AM 53.4°F11.9°C 49.3°F9.6°C 86% Calm Calm 3.1 mph5.0 kmh 30.34 in1027.4 mb 0.00 in0.0 mm 0.00 in0.0 mm 0.00 in0.0 mm
05:15 AM 53.2°F11.8°C 49.2°F9.6°C 86% Calm Calm 0.7 mph1.1 kmh 30.34 in1027.4 mb 0.00 in0.0 mm 0.00 in0.0 mm 0.00 in0.0 mm
05:20 AM 52.9°F11.6°C 48.8°F9.3°C 86% 2.2 mph NNW3.5 kmh NNW 3.1 mph5.0 kmh 30.34 in1027.4 mb 0.00 in0.0 mm 0.00 in0.0 mm 0.00 in0.0 mm
05:25 AM 52.5°F11.4°C 48.8°F9.3°C 87% Calm Calm 3.1 mph5.0 kmh 30.34 in1027.4 mb 0.00 in0.0 mm 0.00 in0.0 mm 0.00 in0.0 mm
05:30 AM 52.3°F11.3°C 48.6°F9.2°C 87% Calm Calm 3.1 mph5.0 kmh 30.34 in1027.4 mb 0.00 in0.0 mm 0.00 in0.0 mm 0.00 in0.0 mm
05:35 AM 52.2°F11.2°C 48.7°F9.3°C 88% 0.7 mph E1.1 kmh E 2.2 mph3.5 kmh 30.34 in1027.4 mb 0.00 in0.0 mm 0.00 in0.0 mm 0.00 in0.0 mm
05:40 AM 52.0°F11.1°C 48.5°F9.2°C 88% 1.6 mph E2.6 kmh E 2.2 mph3.5 kmh 30.35 in1027.8 mb 0.00 in0.0 mm 0.00 in0.0 mm 0.00 in0.0 mm
05:45 AM 52.0°F11.1°C 48.8°F9.3°C 89% Calm Calm 2.2 mph3.5 kmh 30.34 in1027.4 mb 0.00 in0.0 mm 0.00 in0.0 mm 0.00 in0.0 mm
05:50 AM 52.0°F11.1°C 48.8°F9.3°C 89% 1.6 mph E2.6 kmh E 2.2 mph3.5 kmh 30.34 in1027.4 mb 0.00 in0.0 mm 0.00 in0.0 mm 0.00 in0.0 mm
05:55 AM 51.8°F11.0°C 49.0°F9.4°C 90% Calm Calm 2.2 mph3.5 kmh 30.34 in1027.4 mb 0.00 in0.0 mm 0.00 in0.0 mm 0.00 in0.0 mm
06:00 AM 51.6°F10.9°C 49.1°F9.5°C 91% Calm Calm 2.2 mph3.5 kmh 30.34 in1027.4 mb 0.00 in0.0 mm 0.00 in0.0 mm 0.00 in0.0 mm
06:05 AM 51.6°F10.9°C 49.1°F9.5°C 91% 0.7 mph SE1.1 kmh SE 3.1 mph5.0 kmh 30.34 in1027.4 mb 0.00 in0.0 mm 0.00 in0.0 mm 0.00 in0.0 mm
06:10 AM 51.6°F10.9°C 49.4°F9.7°C 92% 0.7 mph ESE1.1 kmh ESE 3.1 mph5.0 kmh 30.34 in1027.4 mb 0.00 in0.0 mm 0.00 in0.0 mm 0.00 in0.0 mm
06:15 AM 51.4°F10.8°C 49.2°F9.6°C 92% 0.7 mph E1.1 kmh E 2.2 mph3.5 kmh 30.33 in1027.1 mb 0.00 in0.0 mm 0.00 in0.0 mm 0.00 in0.0 mm
06:20 AM 51.3°F10.7°C 49.0°F9.4°C 92% 2.2 mph ENE3.5 kmh ENE 3.1 mph5.0 kmh 30.34 in1027.4 mb 0.00 in0.0 mm 0.00 in0.0 mm 0.00 in0.0 mm
06:25 AM 51.3°F10.7°C 49.0°F9.4°C 92% 0.7 mph E1.1 kmh E 3.1 mph5.0 kmh 30.34 in1027.4 mb 0.00 in0.0 mm 0.00 in0.0 mm 0.00 in0.0 mm
06:30 AM 51.1°F10.6°C 49.1°F9.5°C 93% 1.6 mph NE2.6 kmh NE 3.1 mph5.0 kmh 30.34 in1027.4 mb 0.00 in0.0 mm 0.00 in0.0 mm 0.00 in0.0 mm
06:35 AM 50.9°F10.5°C 49.0°F9.4°C 93% 0.7 mph N1.1 kmh N 3.1 mph5.0 kmh 30.34 in1027.4 mb 0.00 in0.0 mm 0.00 in0.0 mm 0.00 in0.0 mm
06:40 AM 50.7°F10.4°C 48.8°F9.3°C 93% 0.7 mph N1.1 kmh N 3.1 mph5.0 kmh 30.34 in1027.4 mb 0.00 in0.0 mm 0.00 in0.0 mm 0.00 in0.0 mm
06:45 AM 50.7°F10.4°C 48.8°F9.3°C 93% Calm Calm 2.2 mph3.5 kmh 30.34 in1027.4 mb 0.00 in0.0 mm 0.00 in0.0 mm 0.00 in0.0 mm
06:50 AM 50.5°F10.3°C 48.6°F9.2°C 93% Calm Calm 2.2 mph3.5 kmh 30.34 in1027.4 mb 0.00 in0.0 mm 0.00 in0.0 mm 0.00 in0.0 mm
06:55 AM 50.4°F10.2°C 48.4°F9.1°C 93% 1.6 mph N2.6 kmh N 3.1 mph5.0 kmh 30.34 in1027.4 mb 0.00 in0.0 mm 0.00 in0.0 mm 0.00 in0.0 mm
07:00 AM 50.2°F10.1°C 48.2°F9.0°C 93% 1.6 mph NNE2.6 kmh NNE 3.1 mph5.0 kmh 30.34 in1027.4 mb 0.00 in0.0 mm 0.00 in0.0 mm 0.00 in0.0 mm
07:05 AM 50.2°F10.1°C 48.2°F9.0°C 93% 1.6 mph E2.6 kmh E 2.2 mph3.5 kmh 30.34 in1027.4 mb 0.00 in0.0 mm 0.00 in0.0 mm 0.00 in0.0 mm
07:10 AM 50.2°F10.1°C 48.5°F9.2°C 94% 1.6 mph ESE2.6 kmh ESE 2.2 mph3.5 kmh 30.34 in1027.4 mb 0.00 in0.0 mm 0.00 in0.0 mm 0.00 in0.0 mm
07:15 AM 50.4°F10.2°C 48.7°F9.3°C 94% 1.6 mph SE2.6 kmh SE 3.1 mph5.0 kmh 30.34 in1027.4 mb 0.00 in0.0 mm 0.00 in0.0 mm 0.00 in0.0 mm
07:20 AM 50.5°F10.3°C 48.9°F9.4°C 94% Calm Calm 3.8 mph6.1 kmh 30.34 in1027.4 mb 0.00 in0.0 mm 0.00 in0.0 mm 0.00 in0.0 mm
07:25 AM 50.7°F10.4°C 49.1°F9.5°C 94% Calm Calm 3.8 mph6.1 kmh 30.34 in1027.4 mb 0.00 in0.0 mm 0.00 in0.0 mm 0.00 in0.0 mm
07:30 AM 50.7°F10.4°C 49.1°F9.5°C 94% Calm Calm 3.1 mph5.0 kmh 30.34 in1027.4 mb 0.00 in0.0 mm 0.00 in0.0 mm 0.00 in0.0 mm
07:35 AM 50.7°F10.4°C 49.1°F9.5°C 94% Calm Calm 3.1 mph5.0 kmh 30.35 in1027.8 mb 0.00 in0.0 mm 0.00 in0.0 mm 0.00 in0.0 mm
07:40 AM 51.1°F10.6°C 49.4°F9.7°C 94% 1.6 mph SE2.6 kmh SE 3.8 mph6.1 kmh 30.35 in1027.8 mb 0.00 in0.0 mm 0.00 in0.0 mm 0.00 in0.0 mm
07:45 AM 51.8°F11.0°C 49.8°F9.9°C 93% 1.6 mph SE2.6 kmh SE 3.8 mph6.1 kmh 30.35 in1027.8 mb 0.00 in0.0 mm 0.00 in0.0 mm 0.00 in0.0 mm
07:50 AM 52.7°F11.5°C 50.7°F10.4°C 93% 1.6 mph ENE2.6 kmh ENE 3.1 mph5.0 kmh 30.34 in1027.4 mb 0.00 in0.0 mm 0.00 in0.0 mm 0.00 in0.0 mm
07:55 AM 53.1°F11.7°C 50.8°F10.4°C 92% Calm Calm 3.1 mph5.0 kmh 30.34 in1027.4 mb 0.00 in0.0 mm 0.00 in0.0 mm 0.00 in0.0 mm
08:00 AM 54.0°F12.2°C 51.1°F10.6°C 90% Calm Calm 2.2 mph3.5 kmh 30.35 in1027.8 mb 0.00 in0.0 mm 0.00 in0.0 mm 0.00 in0.0 mm
08:05 AM 54.7°F12.6°C 51.2°F10.7°C 88% Calm Calm 1.6 mph2.6 kmh 30.34 in1027.4 mb 0.00 in0.0 mm 0.00 in0.0 mm 0.00 in0.0 mm
08:10 AM 55.4°F13.0°C 51.6°F10.9°C 87% Calm Calm 1.6 mph2.6 kmh 30.34 in1027.4 mb 0.00 in0.0 mm 0.00 in0.0 mm 0.00 in0.0 mm
08:15 AM 55.9°F13.3°C 51.8°F11.0°C 86% 0.7 mph N1.1 kmh N 2.2 mph3.5 kmh 30.34 in1027.4 mb 0.00 in0.0 mm 0.00 in0.0 mm 0.00 in0.0 mm
08:20 AM 56.7°F13.7°C 52.2°F11.2°C 85% Calm Calm 2.2 mph3.5 kmh 30.34 in1027.4 mb 0.00 in0.0 mm 0.00 in0.0 mm 0.00 in0.0 mm
08:25 AM 57.7°F14.3°C 52.9°F11.6°C 84% Calm Calm 2.2 mph3.5 kmh 30.34 in1027.4 mb 0.00 in0.0 mm 0.00 in0.0 mm 0.00 in0.0 mm
08:30 AM 59.0°F15.0°C 52.9°F11.6°C 80% Calm Calm 0.7 mph1.1 kmh 30.34 in1027.4 mb 0.00 in0.0 mm 0.00 in0.0 mm 0.00 in0.0 mm
08:35 AM 60.3°F15.7°C 53.4°F11.9°C 78% Calm Calm 0.7 mph1.1 kmh 30.35 in1027.8 mb 0.00 in0.0 mm 0.00 in0.0 mm 0.00 in0.0 mm
08:40 AM 61.0°F16.1°C 52.6°F11.4°C 74% 1.6 mph W2.6 kmh W 2.2 mph3.5 kmh 30.35 in1027.8 mb 0.00 in0.0 mm 0.00 in0.0 mm 0.00 in0.0 mm
08:45 AM 61.7°F16.5°C 53.0°F11.7°C 73% Calm Calm 2.2 mph3.5 kmh 30.34 in1027.4 mb 0.00 in0.0 mm 0.00 in0.0 mm 0.00 in0.0 mm
08:50 AM 62.2°F16.8°C 53.1°F11.7°C 72% Calm Calm 3.1 mph5.0 kmh 30.34 in1027.4 mb 0.00 in0.0 mm 0.00 in0.0 mm 0.00 in0.0 mm
08:55 AM 62.6°F17.0°C 52.7°F11.5°C 70% 1.6 mph WSW2.6 kmh WSW 3.1 mph5.0 kmh 30.34 in1027.4 mb 0.00 in0.0 mm 0.00 in0.0 mm 0.00 in0.0 mm
09:00 AM 63.1°F17.3°C 53.2°F11.8°C 70% 1.6 mph WNW2.6 kmh WNW 3.1 mph5.0 kmh 30.34 in1027.4 mb 0.00 in0.0 mm 0.00 in0.0 mm 0.00 in0.0 mm
09:05 AM 63.1°F17.3°C 53.2°F11.8°C 70% 1.6 mph NW2.6 kmh NW 2.2 mph3.5 kmh 30.34 in1027.4 mb 0.00 in0.0 mm 0.00 in0.0 mm 0.00 in0.0 mm
09:10 AM 63.3°F17.4°C 51.8°F11.0°C 66% 0.7 mph WNW1.1 kmh WNW 2.2 mph3.5 kmh 30.34 in1027.4 mb 0.00 in0.0 mm 0.00 in0.0 mm 0.00 in0.0 mm
09:15 AM 63.5°F17.5°C 52.0°F11.1°C 66% 3.1 mph WSW5.0 kmh WSW 3.8 mph6.1 kmh 30.34 in1027.4 mb 0.00 in0.0 mm 0.00 in0.0 mm 0.00 in0.0 mm
09:20 AM 63.9°F17.7°C 52.3°F11.3°C 66% 0.7 mph WSW1.1 kmh WSW 3.8 mph6.1 kmh 30.35 in1027.8 mb 0.00 in0.0 mm 0.00 in0.0 mm 0.00 in0.0 mm
09:25 AM 64.0°F17.8°C 52.1°F11.2°C 65% 1.6 mph SW2.6 kmh SW 3.8 mph6.1 kmh 30.34 in1027.4 mb 0.00 in0.0 mm 0.00 in0.0 mm 0.00 in0.0 mm
09:30 AM 64.2°F17.9°C 51.4°F10.8°C 63% 2.2 mph S3.5 kmh S 3.8 mph6.1 kmh 30.34 in1027.4 mb 0.00 in0.0 mm 0.00 in0.0 mm 0.00 in0.0 mm
09:35 AM 64.9°F18.3°C 52.5°F11.4°C 64% 1.6 mph S2.6 kmh S 3.1 mph5.0 kmh 30.34 in1027.4 mb 0.00 in0.0 mm 0.00 in0.0 mm 0.00 in0.0 mm
09:40 AM 65.8°F18.8°C 52.5°F11.4°C 62% 1.6 mph S2.6 kmh S 3.1 mph5.0 kmh 30.34 in1027.4 mb 0.00 in0.0 mm 0.00 in0.0 mm 0.00 in0.0 mm
09:45 AM 66.6°F19.2°C 52.3°F11.3°C 60% Calm Calm 3.1 mph5.0 kmh 30.34 in1027.4 mb 0.00 in0.0 mm 0.00 in0.0 mm 0.00 in0.0 mm
09:50 AM 67.6°F19.8°C 53.3°F11.8°C 60% 0.7 mph SW1.1 kmh SW 2.2 mph3.5 kmh 30.33 in1027.1 mb 0.00 in0.0 mm 0.00 in0.0 mm 0.00 in0.0 mm
09:55 AM 68.2°F20.1°C 51.9°F11.1°C 56% 0.7 mph SW1.1 kmh SW 2.2 mph3.5 kmh 30.34 in1027.4 mb 0.00 in0.0 mm 0.00 in0.0 mm 0.00 in0.0 mm
10:00 AM 68.7°F20.4°C 52.4°F11.3°C 56% Calm Calm 2.2 mph3.5 kmh 30.33 in1027.1 mb 0.00 in0.0 mm 0.00 in0.0 mm 0.00 in0.0 mm
10:05 AM 69.1°F20.6°C 52.3°F11.3°C 55% 0.7 mph SW1.1 kmh SW 3.1 mph5.0 kmh 30.33 in1027.1 mb 0.00 in0.0 mm 0.00 in0.0 mm 0.00 in0.0 mm
10:10 AM 69.8°F21.0°C 52.9°F11.6°C 55% 0.7 mph SW1.1 kmh SW 3.1 mph5.0 kmh 30.33 in1027.1 mb 0.00 in0.0 mm 0.00 in0.0 mm 0.00 in0.0 mm
10:15 AM 70.5°F21.4°C 53.1°F11.7°C 54% 0.7 mph WSW1.1 kmh WSW 3.8 mph6.1 kmh 30.32 in1026.8 mb 0.00 in0.0 mm 0.00 in0.0 mm 0.00 in0.0 mm
10:20 AM 71.2°F21.8°C 53.3°F11.8°C 53% 2.2 mph SW3.5 kmh SW 3.8 mph6.1 kmh 30.32 in1026.8 mb 0.00 in0.0 mm 0.00 in0.0 mm 0.00 in0.0 mm
10:25 AM 71.8°F22.1°C 52.7°F11.5°C 51% 0.7 mph SW1.1 kmh SW 4.5 mph7.2 kmh 30.32 in1026.8 mb 0.00 in0.0 mm 0.00 in0.0 mm 0.00 in0.0 mm
10:30 AM 72.0°F22.2°C 53.4°F11.9°C 52% 1.6 mph WSW2.6 kmh WSW 4.5 mph7.2 kmh 30.32 in1026.8 mb 0.00 in0.0 mm 0.00 in0.0 mm 0.00 in0.0 mm
10:35 AM 72.1°F22.3°C 53.0°F11.7°C 51% 0.7 mph SW1.1 kmh SW 3.8 mph6.1 kmh 30.32 in1026.8 mb 0.00 in0.0 mm 0.00 in0.0 mm 0.00 in0.0 mm
10:40 AM 72.9°F22.7°C 53.2°F11.8°C 50% 2.2 mph S3.5 kmh S 4.5 mph7.2 kmh 30.31 in1026.4 mb 0.00 in0.0 mm 0.00 in0.0 mm 0.00 in0.0 mm
10:45 AM 73.2°F22.9°C 52.9°F11.6°C 49% 1.6 mph SSW2.6 kmh SSW 4.5 mph7.2 kmh 30.32 in1026.8 mb 0.00 in0.0 mm 0.00 in0.0 mm 0.00 in0.0 mm
10:50 AM 73.4°F23.0°C 52.5°F11.4°C 48% Calm Calm 4.5 mph7.2 kmh 30.32 in1026.8 mb 0.00 in0.0 mm 0.00 in0.0 mm 0.00 in0.0 mm
10:55 AM 73.4°F23.0°C 52.0°F11.1°C 47% 0.7 mph SW1.1 kmh SW 3.8 mph6.1 kmh 30.31 in1026.4 mb 0.00 in0.0 mm 0.00 in0.0 mm 0.00 in0.0 mm
11:00 AM 73.8°F23.2°C 52.9°F11.6°C 48% 1.6 mph SW2.6 kmh SW 5.4 mph8.7 kmh 30.31 in1026.4 mb 0.00 in0.0 mm 0.00 in0.0 mm 0.00 in0.0 mm
11:05 AM 73.8°F23.2°C 52.9°F11.6°C 48% 1.6 mph SSW2.6 kmh SSW 5.4 mph8.7 kmh 30.30 in1026.1 mb 0.00 in0.0 mm 0.00 in0.0 mm 0.00 in0.0 mm
11:10 AM 74.8°F23.8°C 53.9°F12.2°C 48% 3.1 mph S5.0 kmh S 4.5 mph7.2 kmh 30.30 in1026.1 mb 0.00 in0.0 mm 0.00 in0.0 mm 0.00 in0.0 mm
11:15 AM 75.6°F24.2°C 53.9°F12.2°C 47% 1.6 mph SW2.6 kmh SW 4.5 mph7.2 kmh 30.30 in1026.1 mb 0.00 in0.0 mm 0.00 in0.0 mm 0.00 in0.0 mm
11:20 AM 76.3°F24.6°C 54.0°F12.2°C 46% 2.2 mph W3.5 kmh W 5.4 mph8.7 kmh 30.30 in1026.1 mb 0.00 in0.0 mm 0.00 in0.0 mm 0.00 in0.0 mm
11:25 AM 76.6°F24.8°C 53.7°F12.1°C 45% 2.2 mph WSW3.5 kmh WSW 5.4 mph8.7 kmh 30.30 in1026.1 mb 0.00 in0.0 mm 0.00 in0.0 mm 0.00 in0.0 mm
11:30 AM 77.4°F25.2°C 53.8°F12.1°C 44% 1.6 mph SW2.6 kmh SW 3.8 mph6.1 kmh 30.29 in1025.7 mb 0.00 in0.0 mm 0.00 in0.0 mm 0.00 in0.0 mm
11:35 AM 78.1°F25.6°C 53.8°F12.1°C 43% 0.7 mph SW1.1 kmh SW 4.5 mph7.2 kmh 30.29 in1025.7 mb 0.00 in0.0 mm 0.00 in0.0 mm 0.00 in0.0 mm
11:40 AM 78.4°F25.8°C 54.1°F12.3°C 43% 1.6 mph SW2.6 kmh SW 4.5 mph7.2 kmh 30.29 in1025.7 mb 0.00 in0.0 mm 0.00 in0.0 mm 0.00 in0.0 mm
11:45 AM 78.8°F26.0°C 53.8°F12.1°C 42% 0.7 mph SW1.1 kmh SW 3.8 mph6.1 kmh 30.29 in1025.7 mb 0.00 in0.0 mm 0.00 in0.0 mm 0.00 in0.0 mm
11:50 AM 79.3°F26.3°C 53.0°F11.7°C 40% Calm Calm 3.8 mph6.1 kmh 30.29 in1025.7 mb 0.00 in0.0 mm 0.00 in0.0 mm 0.00 in0.0 mm
11:55 AM 80.2°F26.8°C 53.1°F11.7°C 39% 1.6 mph SE2.6 kmh SE 3.1 mph5.0 kmh 30.29 in1025.7 mb 0.00 in0.0 mm 0.00 in0.0 mm 0.00 in0.0 mm
12:00 PM 81.0°F27.2°C 52.3°F11.3°C 37% 0.7 mph WNW1.1 kmh WNW 3.1 mph5.0 kmh 30.29 in1025.7 mb 0.00 in0.0 mm 0.00 in0.0 mm 0.00 in0.0 mm
12:05 PM 81.3°F27.4°C 55.4°F13.0°C 41% 1.6 mph WNW2.6 kmh WNW 3.8 mph6.1 kmh 30.28 in1025.4 mb 0.00 in0.0 mm 0.00 in0.0 mm 0.00 in0.0 mm
12:10 PM 82.0°F27.8°C 55.4°F13.0°C 40% 3.1 mph NW5.0 kmh NW 5.4 mph8.7 kmh 30.28 in1025.4 mb 0.00 in0.0 mm 0.00 in0.0 mm 0.00 in0.0 mm
12:15 PM 82.6°F28.1°C 54.4°F12.4°C 38% 1.6 mph WNW2.6 kmh WNW 5.4 mph8.7 kmh 30.28 in1025.4 mb 0.00 in0.0 mm 0.00 in0.0 mm 0.00 in0.0 mm
12:20 PM 82.9°F28.3°C 54.8°F12.7°C 38% 1.6 mph WSW2.6 kmh WSW 5.4 mph8.7 kmh 30.27 in1025.1 mb 0.00 in0.0 mm 0.00 in0.0 mm 0.00 in0.0 mm
12:25 PM 83.3°F28.5°C 55.1°F12.8°C 38% 0.7 mph W1.1 kmh W 5.4 mph8.7 kmh 30.27 in1025.1 mb 0.00 in0.0 mm 0.00 in0.0 mm 0.00 in0.0 mm
12:30 PM 83.5°F28.6°C 54.5°F12.5°C 37% 1.6 mph W2.6 kmh W 5.4 mph8.7 kmh 30.27 in1025.1 mb 0.00 in0.0 mm 0.00 in0.0 mm 0.00 in0.0 mm
12:35 PM 84.0°F28.9°C 55.0°F12.8°C 37% 2.2 mph NW3.5 kmh NW 5.4 mph8.7 kmh 30.27 in1025.1 mb 0.00 in0.0 mm 0.00 in0.0 mm 0.00 in0.0 mm
12:40 PM 84.7°F29.3°C 55.6°F13.1°C 37% 1.6 mph NNW2.6 kmh NNW 5.4 mph8.7 kmh 30.26 in1024.7 mb 0.00 in0.0 mm 0.00 in0.0 mm 0.00 in0.0 mm
12:45 PM 85.5°F29.7°C 56.3°F13.5°C 37% 3.8 mph NW6.1 kmh NW 4.5 mph7.2 kmh 30.26 in1024.7 mb 0.00 in0.0 mm 0.00 in0.0 mm 0.00 in0.0 mm
12:50 PM 86.0°F30.0°C 53.6°F12.0°C 33% 1.6 mph NW2.6 kmh NW 4.5 mph7.2 kmh 30.26 in1024.7 mb 0.00 in0.0 mm 0.00 in0.0 mm 0.00 in0.0 mm
12:55 PM 86.4°F30.2°C 54.7°F12.6°C 34% 0.7 mph NNW1.1 kmh NNW 4.5 mph7.2 kmh 30.25 in1024.4 mb 0.00 in0.0 mm 0.00 in0.0 mm 0.00 in0.0 mm
01:00 PM 87.1°F30.6°C 53.7°F12.1°C 32% 1.6 mph W2.6 kmh W 4.5 mph7.2 kmh 30.25 in1024.4 mb 0.00 in0.0 mm 0.00 in0.0 mm 0.00 in0.0 mm
01:05 PM 87.1°F30.6°C 53.7°F12.1°C 32% 1.6 mph WSW2.6 kmh WSW 3.1 mph5.0 kmh 30.25 in1024.4 mb 0.00 in0.0 mm 0.00 in0.0 mm 0.00 in0.0 mm
01:10 PM 87.8°F31.0°C 53.5°F11.9°C 31% 1.6 mph N2.6 kmh N 4.5 mph7.2 kmh 30.25 in1024.4 mb 0.00 in0.0 mm 0.00 in0.0 mm 0.00 in0.0 mm
01:15 PM 88.2°F31.2°C 51.0°F10.6°C 28% 3.1 mph E5.0 kmh E 4.5 mph7.2 kmh 30.25 in1024.4 mb 0.00 in0.0 mm 0.00 in0.0 mm 0.00 in0.0 mm
01:20 PM 88.5°F31.4°C 52.3°F11.3°C 29% 2.2 mph ESE3.5 kmh ESE 5.4 mph8.7 kmh 30.24 in1024.0 mb 0.00 in0.0 mm 0.00 in0.0 mm 0.00 in0.0 mm
01:25 PM 88.9°F31.6°C 55.3°F12.9°C 32% 3.1 mph SE5.0 kmh SE 6.0 mph9.7 kmh 30.24 in1024.0 mb 0.00 in0.0 mm 0.00 in0.0 mm 0.00 in0.0 mm
01:30 PM 89.2°F31.8°C 52.9°F11.6°C 29% 3.1 mph SSE5.0 kmh SSE 6.0 mph9.7 kmh 30.23 in1023.7 mb 0.00 in0.0 mm 0.00 in0.0 mm 0.00 in0.0 mm
01:35 PM 89.4°F31.9°C 52.1°F11.2°C 28% 3.1 mph S5.0 kmh S 6.9 mph11.1 kmh 30.23 in1023.7 mb 0.00 in0.0 mm 0.00 in0.0 mm 0.00 in0.0 mm
01:40 PM 89.6°F32.0°C 52.2°F11.2°C 28% 6.0 mph WSW9.7 kmh WSW 8.3 mph13.4 kmh 30.22 in1023.4 mb 0.00 in0.0 mm 0.00 in0.0 mm 0.00 in0.0 mm
01:45 PM 89.6°F32.0°C 51.2°F10.7°C 27% 3.8 mph W6.1 kmh W 8.3 mph13.4 kmh 30.22 in1023.4 mb 0.00 in0.0 mm 0.00 in0.0 mm 0.00 in0.0 mm
01:50 PM 89.4°F31.9°C 53.0°F11.7°C 29% 1.6 mph NW2.6 kmh NW 8.3 mph13.4 kmh 30.21 in1023.0 mb 0.00 in0.0 mm 0.00 in0.0 mm 0.00 in0.0 mm
01:55 PM 89.2°F31.8°C 53.8°F12.1°C 30% 3.1 mph NW5.0 kmh NW 8.3 mph13.4 kmh 30.22 in1023.4 mb 0.00 in0.0 mm 0.00 in0.0 mm 0.00 in0.0 mm
02:00 PM 89.2°F31.8°C 53.8°F12.1°C 30% 0.7 mph NW1.1 kmh NW 8.3 mph13.4 kmh 30.21 in1023.0 mb 0.00 in0.0 mm 0.00 in0.0 mm 0.00 in0.0 mm
02:05 PM 89.6°F32.0°C 51.2°F10.7°C 27% 3.8 mph WNW6.1 kmh WNW 6.0 mph9.7 kmh 30.21 in1023.0 mb 0.00 in0.0 mm 0.00 in0.0 mm 0.00 in0.0 mm
02:10 PM 90.0°F32.2°C 53.5°F11.9°C 29% 2.2 mph W3.5 kmh W 7.6 mph12.2 kmh 30.21 in1023.0 mb 0.00 in0.0 mm 0.00 in0.0 mm 0.00 in0.0 mm
02:15 PM 90.1°F32.3°C 49.6°F9.8°C 25% 2.2 mph W3.5 kmh W 7.6 mph12.2 kmh 30.20 in1022.7 mb 0.00 in0.0 mm 0.00 in0.0 mm 0.00 in0.0 mm
02:20 PM 90.1°F32.3°C 50.7°F10.4°C 26% 3.1 mph W5.0 kmh W 8.3 mph13.4 kmh 30.20 in1022.7 mb 0.00 in0.0 mm 0.00 in0.0 mm 0.00 in0.0 mm
02:25 PM 90.5°F32.5°C 51.0°F10.6°C 26% 3.1 mph W5.0 kmh W 8.3 mph13.4 kmh 30.20 in1022.7 mb 0.00 in0.0 mm 0.00 in0.0 mm 0.00 in0.0 mm
02:30 PM 90.9°F32.7°C 51.3°F10.7°C 26% 5.4 mph WNW8.7 kmh WNW 7.6 mph12.2 kmh 30.19 in1022.4 mb 0.00 in0.0 mm 0.00 in0.0 mm 0.00 in0.0 mm
02:35 PM 91.0°F32.8°C 52.5°F11.4°C 27% 3.1 mph NW5.0 kmh NW 7.6 mph12.2 kmh 30.19 in1022.4 mb 0.00 in0.0 mm 0.00 in0.0 mm 0.00 in0.0 mm
02:40 PM 91.2°F32.9°C 50.5°F10.3°C 25% 3.8 mph W6.1 kmh W 7.6 mph12.2 kmh 30.19 in1022.4 mb 0.00 in0.0 mm 0.00 in0.0 mm 0.00 in0.0 mm
02:45 PM 91.4°F33.0°C 53.8°F12.1°C 28% 4.5 mph W7.2 kmh W 8.3 mph13.4 kmh 30.18 in1022.0 mb 0.00 in0.0 mm 0.00 in0.0 mm 0.00 in0.0 mm
02:50 PM 91.0°F32.8°C 50.4°F10.2°C 25% 6.0 mph WNW9.7 kmh WNW 8.3 mph13.4 kmh 30.18 in1022.0 mb 0.00 in0.0 mm 0.00 in0.0 mm 0.00 in0.0 mm
02:55 PM 91.0°F32.8°C 51.4°F10.8°C 26% 4.5 mph WNW7.2 kmh WNW 8.3 mph13.4 kmh 30.18 in1022.0 mb 0.00 in0.0 mm 0.00 in0.0 mm 0.00 in0.0 mm
03:00 PM 91.0°F32.8°C 50.4°F10.2°C 25% 6.0 mph WNW9.7 kmh WNW 11.4 mph18.3 kmh 30.18 in1022.0 mb 0.00 in0.0 mm 0.00 in0.0 mm 0.00 in0.0 mm
03:05 PM 91.4°F33.0°C 54.7°F12.6°C 29% 6.0 mph NW9.7 kmh NW 11.4 mph18.3 kmh 30.18 in1022.0 mb 0.00 in0.0 mm 0.00 in0.0 mm 0.00 in0.0 mm
03:10 PM 91.8°F33.2°C 56.0°F13.3°C 30% 5.4 mph NW8.7 kmh NW 9.8 mph15.8 kmh 30.17 in1021.7 mb 0.00 in0.0 mm 0.00 in0.0 mm 0.00 in0.0 mm
03:15 PM 91.6°F33.1°C 53.9°F12.2°C 28% 5.4 mph NW8.7 kmh NW 9.8 mph15.8 kmh 30.17 in1021.7 mb 0.00 in0.0 mm 0.00 in0.0 mm 0.00 in0.0 mm
03:20 PM 91.8°F33.2°C 54.1°F12.3°C 28% 5.4 mph NW8.7 kmh NW 9.8 mph15.8 kmh 30.16 in1021.3 mb 0.00 in0.0 mm 0.00 in0.0 mm 0.00 in0.0 mm
03:25 PM 91.8°F33.2°C 53.1°F11.7°C 27% 6.0 mph NW9.7 kmh NW 11.4 mph18.3 kmh 30.16 in1021.3 mb 0.00 in0.0 mm 0.00 in0.0 mm 0.00 in0.0 mm
03:30 PM 91.8°F33.2°C 53.1°F11.7°C 27% 6.0 mph NW9.7 kmh NW 11.4 mph18.3 kmh 30.15 in1021.0 mb 0.00 in0.0 mm 0.00 in0.0 mm 0.00 in0.0 mm
03:35 PM 91.8°F33.2°C 53.1°F11.7°C 27% 4.5 mph NW7.2 kmh NW 10.7 mph17.2 kmh 30.15 in1021.0 mb 0.00 in0.0 mm 0.00 in0.0 mm 0.00 in0.0 mm
03:40 PM 91.8°F33.2°C 52.1°F11.2°C 26% 6.9 mph WNW11.1 kmh WNW 9.8 mph15.8 kmh 30.15 in1021.0 mb 0.00 in0.0 mm 0.00 in0.0 mm 0.00 in0.0 mm
03:45 PM 92.3°F33.5°C 53.5°F11.9°C 27% 4.5 mph NW7.2 kmh NW 9.2 mph14.8 kmh 30.14 in1020.7 mb 0.00 in0.0 mm 0.00 in0.0 mm 0.00 in0.0 mm
03:50 PM 92.7°F33.7°C 53.9°F12.2°C 27% 3.1 mph NW5.0 kmh NW 9.2 mph14.8 kmh 30.14 in1020.7 mb 0.00 in0.0 mm 0.00 in0.0 mm 0.00 in0.0 mm
03:55 PM 93.2°F34.0°C 52.2°F11.2°C 25% 1.6 mph NW2.6 kmh NW 6.9 mph11.1 kmh 30.14 in1020.7 mb 0.00 in0.0 mm 0.00 in0.0 mm 0.00 in0.0 mm
04:00 PM 93.7°F34.3°C 52.7°F11.5°C 25% 4.5 mph WNW7.2 kmh WNW 6.9 mph11.1 kmh 30.14 in1020.7 mb 0.00 in0.0 mm 0.00 in0.0 mm 0.00 in0.0 mm
04:05 PM 93.7°F34.3°C 52.7°F11.5°C 25% 6.0 mph W9.7 kmh W 8.3 mph13.4 kmh 30.14 in1020.7 mb 0.00 in0.0 mm 0.00 in0.0 mm 0.00 in0.0 mm
04:10 PM 93.6°F34.2°C 51.4°F10.8°C 24% 3.8 mph NW6.1 kmh NW 8.3 mph13.4 kmh 30.14 in1020.7 mb 0.00 in0.0 mm 0.00 in0.0 mm 0.00 in0.0 mm
04:15 PM 93.9°F34.4°C 52.8°F11.6°C 25% 3.1 mph NNW5.0 kmh NNW 8.3 mph13.4 kmh 30.14 in1020.7 mb 0.00 in0.0 mm 0.00 in0.0 mm 0.00 in0.0 mm
04:20 PM 94.3°F34.6°C 52.0°F11.1°C 24% 3.1 mph NW5.0 kmh NW 6.0 mph9.7 kmh 30.14 in1020.7 mb 0.00 in0.0 mm 0.00 in0.0 mm 0.00 in0.0 mm
04:25 PM 94.3°F34.6°C 53.1°F11.7°C 25% 3.1 mph NW5.0 kmh NW 6.0 mph9.7 kmh 30.14 in1020.7 mb 0.00 in0.0 mm 0.00 in0.0 mm 0.00 in0.0 mm
04:30 PM 94.6°F34.8°C 53.4°F11.9°C 25% 4.5 mph NW7.2 kmh NW 6.9 mph11.1 kmh 30.14 in1020.7 mb 0.00 in0.0 mm 0.00 in0.0 mm 0.00 in0.0 mm
04:35 PM 94.6°F34.8°C 53.4°F11.9°C 25% 4.5 mph NW7.2 kmh NW 6.9 mph11.1 kmh 30.14 in1020.7 mb 0.00 in0.0 mm 0.00 in0.0 mm 0.00 in0.0 mm
04:40 PM 94.6°F34.8°C 52.3°F11.3°C 24% 2.2 mph WNW3.5 kmh WNW 6.9 mph11.1 kmh 30.14 in1020.7 mb 0.00 in0.0 mm 0.00 in0.0 mm 0.00 in0.0 mm
04:45 PM 94.5°F34.7°C 52.2°F11.2°C 24% 4.5 mph W7.2 kmh W 6.0 mph9.7 kmh 30.14 in1020.7 mb 0.00 in0.0 mm 0.00 in0.0 mm 0.00 in0.0 mm
04:50 PM 94.5°F34.7°C 52.2°F11.2°C 24% 3.1 mph NW5.0 kmh NW 5.4 mph8.7 kmh 30.14 in1020.7 mb 0.00 in0.0 mm 0.00 in0.0 mm 0.00 in0.0 mm
04:55 PM 94.6°F34.8°C 52.3°F11.3°C 24% 6.0 mph ESE9.7 kmh ESE 11.4 mph18.3 kmh 30.14 in1020.7 mb 0.00 in0.0 mm 0.00 in0.0 mm 0.00 in0.0 mm
05:00 PM 94.1°F34.5°C 44.2°F6.8°C 18% 6.0 mph SE9.7 kmh SE 14.5 mph23.3 kmh 30.14 in1020.7 mb 0.00 in0.0 mm 0.00 in0.0 mm 0.00 in0.0 mm
05:05 PM 94.1°F34.5°C 44.2°F6.8°C 18% 6.0 mph SE9.7 kmh SE 14.5 mph23.3 kmh 30.14 in1020.7 mb 0.00 in0.0 mm 0.00 in0.0 mm 0.00 in0.0 mm
05:10 PM 93.4°F34.1°C 38.9°F3.8°C 15% 6.0 mph SE9.7 kmh SE 18.3 mph29.5 kmh 30.14 in1020.7 mb 0.00 in0.0 mm 0.00 in0.0 mm 0.00 in0.0 mm
05:15 PM 93.0°F33.9°C 40.3°F4.6°C 16% 9.2 mph SE14.8 kmh SE 18.3 mph29.5 kmh 30.14 in1020.7 mb 0.00 in0.0 mm 0.00 in0.0 mm 0.00 in0.0 mm
05:20 PM 92.3°F33.5°C 41.2°F5.1°C 17% 12.1 mph SE19.5 kmh SE 18.3 mph29.5 kmh 30.15 in1021.0 mb 0.00 in0.0 mm 0.00 in0.0 mm 0.00 in0.0 mm
05:25 PM 91.9°F33.3°C 45.2°F7.3°C 20% 13.0 mph SE20.9 kmh SE 19.0 mph30.6 kmh 30.14 in1020.7 mb 0.00 in0.0 mm 0.00 in0.0 mm 0.00 in0.0 mm
05:30 PM 91.6°F33.1°C 46.2°F7.9°C 21% 11.4 mph ESE18.3 kmh ESE 19.0 mph30.6 kmh 30.15 in1021.0 mb 0.00 in0.0 mm 0.00 in0.0 mm 0.00 in0.0 mm
05:35 PM 91.4°F33.0°C 47.3°F8.5°C 22% 16.8 mph SE27.0 kmh SE 18.3 mph29.5 kmh 30.15 in1021.0 mb 0.00 in0.0 mm 0.00 in0.0 mm 0.00 in0.0 mm
05:40 PM 91.2°F32.9°C 45.9°F7.7°C 21% 11.4 mph ESE18.3 kmh ESE 18.3 mph29.5 kmh 30.16 in1021.3 mb 0.00 in0.0 mm 0.00 in0.0 mm 0.00 in0.0 mm
05:45 PM 90.9°F32.7°C 45.6°F7.6°C 21% 9.8 mph E15.8 kmh E 19.7 mph31.7 kmh 30.16 in1021.3 mb 0.00 in0.0 mm 0.00 in0.0 mm 0.00 in0.0 mm
05:50 PM 90.5°F32.5°C 46.5°F8.1°C 22% 15.9 mph ESE25.6 kmh ESE 24.4 mph39.3 kmh 30.16 in1021.3 mb 0.00 in0.0 mm 0.00 in0.0 mm 0.00 in0.0 mm
05:55 PM 89.8°F32.1°C 44.7°F7.1°C 21% 19.7 mph ESE31.7 kmh ESE 25.1 mph40.4 kmh 30.16 in1021.3 mb 0.00 in0.0 mm 0.00 in0.0 mm 0.00 in0.0 mm
06:00 PM 89.1°F31.7°C 45.3°F7.4°C 22% 13.0 mph E20.9 kmh E 25.1 mph40.4 kmh 30.17 in1021.7 mb 0.00 in0.0 mm 0.00 in0.0 mm 0.00 in0.0 mm
06:05 PM 88.7°F31.5°C 45.0°F7.2°C 22% 18.3 mph E29.5 kmh E 28.2 mph45.4 kmh 30.17 in1021.7 mb 0.00 in0.0 mm 0.00 in0.0 mm 0.00 in0.0 mm
06:10 PM 88.2°F31.2°C 44.6°F7.0°C 22% 12.1 mph ESE19.5 kmh ESE 28.2 mph45.4 kmh 30.17 in1021.7 mb 0.00 in0.0 mm 0.00 in0.0 mm 0.00 in0.0 mm
06:15 PM 87.6°F30.9°C 45.3°F7.4°C 23% 9.8 mph ESE15.8 kmh ESE 24.4 mph39.3 kmh 30.17 in1021.7 mb 0.00 in0.0 mm 0.00 in0.0 mm 0.00 in0.0 mm
06:20 PM 87.3°F30.7°C 46.1°F7.8°C 24% 10.7 mph ESE17.2 kmh ESE 19.7 mph31.7 kmh 30.17 in1021.7 mb 0.00 in0.0 mm 0.00 in0.0 mm 0.00 in0.0 mm
06:25 PM 86.9°F30.5°C 45.8°F7.7°C 24% 9.8 mph ESE15.8 kmh ESE 22.1 mph35.6 kmh 30.17 in1021.7 mb 0.00 in0.0 mm 0.00 in0.0 mm 0.00 in0.0 mm
06:30 PM 86.5°F30.3°C 45.5°F7.5°C 24% 15.2 mph E24.5 kmh E 22.1 mph35.6 kmh 30.18 in1022.0 mb 0.00 in0.0 mm 0.00 in0.0 mm 0.00 in0.0 mm
06:35 PM 86.4°F30.2°C 45.4°F7.4°C 24% 9.8 mph ESE15.8 kmh ESE 20.6 mph33.2 kmh 30.18 in1022.0 mb 0.00 in0.0 mm 0.00 in0.0 mm 0.00 in0.0 mm
06:40 PM 86.0°F30.0°C 46.1°F7.8°C 25% 13.6 mph E21.9 kmh E 19.0 mph30.6 kmh 30.18 in1022.0 mb 0.00 in0.0 mm 0.00 in0.0 mm 0.00 in0.0 mm
06:45 PM 85.8°F29.9°C 48.0°F8.9°C 27% 8.3 mph E13.4 kmh E 18.3 mph29.5 kmh 30.18 in1022.0 mb 0.00 in0.0 mm 0.00 in0.0 mm 0.00 in0.0 mm
06:50 PM 85.5°F29.7°C 47.7°F8.7°C 27% 13.0 mph ESE20.9 kmh ESE 18.3 mph29.5 kmh 30.18 in1022.0 mb 0.00 in0.0 mm 0.00 in0.0 mm 0.00 in0.0 mm
06:55 PM 85.1°F29.5°C 48.4°F9.1°C 28% 9.2 mph E14.8 kmh E 19.0 mph30.6 kmh 30.18 in1022.0 mb 0.00 in0.0 mm 0.00 in0.0 mm 0.00 in0.0 mm
07:00 PM 84.7°F29.3°C 48.1°F8.9°C 28% 11.4 mph ESE18.3 kmh ESE 19.7 mph31.7 kmh 30.18 in1022.0 mb 0.00 in0.0 mm 0.00 in0.0 mm 0.00 in0.0 mm
07:05 PM 84.7°F29.3°C 48.1°F8.9°C 28% 11.4 mph E18.3 kmh E 19.7 mph31.7 kmh 30.18 in1022.0 mb 0.00 in0.0 mm 0.00 in0.0 mm 0.00 in0.0 mm
07:10 PM 84.0°F28.9°C 49.3°F9.6°C 30% 9.2 mph E14.8 kmh E 20.6 mph33.2 kmh 30.18 in1022.0 mb 0.00 in0.0 mm 0.00 in0.0 mm 0.00 in0.0 mm
07:15 PM 83.7°F28.7°C 49.0°F9.4°C 30% 13.6 mph SE21.9 kmh SE 20.6 mph33.2 kmh 30.19 in1022.4 mb 0.00 in0.0 mm 0.00 in0.0 mm 0.00 in0.0 mm
07:20 PM 83.1°F28.4°C 48.5°F9.2°C 30% 16.8 mph ESE27.0 kmh ESE 22.8 mph36.7 kmh 30.20 in1022.7 mb 0.00 in0.0 mm 0.00 in0.0 mm 0.00 in0.0 mm
07:25 PM 82.4°F28.0°C 47.9°F8.8°C 30% 11.4 mph ESE18.3 kmh ESE 22.8 mph36.7 kmh 30.20 in1022.7 mb 0.00 in0.0 mm 0.00 in0.0 mm 0.00 in0.0 mm
07:30 PM 81.9°F27.7°C 44.6°F7.0°C 27% 15.9 mph E25.6 kmh E 22.8 mph36.7 kmh 30.20 in1022.7 mb 0.00 in0.0 mm 0.00 in0.0 mm 0.00 in0.0 mm
07:35 PM 81.3°F27.4°C 44.2°F6.8°C 27% 10.7 mph E17.2 kmh E 21.3 mph34.3 kmh 30.21 in1023.0 mb 0.00 in0.0 mm 0.00 in0.0 mm 0.00 in0.0 mm
07:40 PM 80.6°F27.0°C 44.5°F6.9°C 28% 9.2 mph E14.8 kmh E 19.7 mph31.7 kmh 30.21 in1023.0 mb 0.00 in0.0 mm 0.00 in0.0 mm 0.00 in0.0 mm
07:45 PM 80.1°F26.7°C 45.0°F7.2°C 29% 11.4 mph E18.3 kmh E 19.7 mph31.7 kmh 30.21 in1023.0 mb 0.00 in0.0 mm 0.00 in0.0 mm 0.00 in0.0 mm
07:50 PM 79.7°F26.5°C 45.6°F7.6°C 30% 7.6 mph ESE12.2 kmh ESE 20.6 mph33.2 kmh 30.22 in1023.4 mb 0.00 in0.0 mm 0.00 in0.0 mm 0.00 in0.0 mm
07:55 PM 79.2°F26.2°C 45.1°F7.3°C 30% 11.4 mph SE18.3 kmh SE 21.3 mph34.3 kmh 30.22 in1023.4 mb 0.00 in0.0 mm 0.00 in0.0 mm 0.00 in0.0 mm
08:00 PM 78.8°F26.0°C 45.6°F7.6°C 31% 9.2 mph SE14.8 kmh SE 21.3 mph34.3 kmh 30.22 in1023.4 mb 0.00 in0.0 mm 0.00 in0.0 mm 0.00 in0.0 mm
08:05 PM 78.3°F25.7°C 46.0°F7.8°C 32% 7.6 mph ESE12.2 kmh ESE 18.3 mph29.5 kmh 30.22 in1023.4 mb 0.00 in0.0 mm 0.00 in0.0 mm 0.00 in0.0 mm
08:10 PM 78.1°F25.6°C 45.9°F7.7°C 32% 13.6 mph SE21.9 kmh SE 22.8 mph36.7 kmh 30.22 in1023.4 mb 0.00 in0.0 mm 0.00 in0.0 mm 0.00 in0.0 mm
08:15 PM 77.9°F25.5°C 45.7°F7.6°C 32% 11.4 mph SE18.3 kmh SE 22.8 mph36.7 kmh 30.22 in1023.4 mb 0.00 in0.0 mm 0.00 in0.0 mm 0.00 in0.0 mm
08:20 PM 77.5°F25.3°C 46.2°F7.9°C 33% 8.3 mph SE13.4 kmh SE 20.6 mph33.2 kmh 30.23 in1023.7 mb 0.00 in0.0 mm 0.00 in0.0 mm 0.00 in0.0 mm
08:25 PM 77.4°F25.2°C 46.0°F7.8°C 33% 11.4 mph SE18.3 kmh SE 18.3 mph29.5 kmh 30.23 in1023.7 mb 0.00 in0.0 mm 0.00 in0.0 mm 0.00 in0.0 mm
08:30 PM 77.2°F25.1°C 45.9°F7.7°C 33% 10.7 mph SE17.2 kmh SE 18.3 mph29.5 kmh 30.23 in1023.7 mb 0.00 in0.0 mm 0.00 in0.0 mm 0.00 in0.0 mm
08:35 PM 76.8°F24.9°C 47.1°F8.4°C 35% 7.6 mph ESE12.2 kmh ESE 15.9 mph25.6 kmh 30.24 in1024.0 mb 0.00 in0.0 mm 0.00 in0.0 mm 0.00 in0.0 mm
08:40 PM 76.5°F24.7°C 46.8°F8.2°C 35% 4.5 mph E7.2 kmh E 15.9 mph25.6 kmh 30.24 in1024.0 mb 0.00 in0.0 mm 0.00 in0.0 mm 0.00 in0.0 mm
08:45 PM 76.1°F24.5°C 47.2°F8.4°C 36% 4.5 mph NE7.2 kmh NE 9.8 mph15.8 kmh 30.25 in1024.4 mb 0.00 in0.0 mm 0.00 in0.0 mm 0.00 in0.0 mm
08:50 PM 75.6°F24.2°C 46.8°F8.2°C 36% 3.1 mph NNE5.0 kmh NNE 8.3 mph13.4 kmh 30.25 in1024.4 mb 0.00 in0.0 mm 0.00 in0.0 mm 0.00 in0.0 mm
08:55 PM 75.2°F24.0°C 47.2°F8.4°C 37% 3.1 mph NNE5.0 kmh NNE 8.3 mph13.4 kmh 30.25 in1024.4 mb 0.00 in0.0 mm 0.00 in0.0 mm 0.00 in0.0 mm
09:00 PM 74.7°F23.7°C 48.1°F8.9°C 39% 6.0 mph NNE9.7 kmh NNE 7.6 mph12.2 kmh 30.25 in1024.4 mb 0.00 in0.0 mm 0.00 in0.0 mm 0.00 in0.0 mm
09:05 PM 74.7°F23.7°C 48.1°F8.9°C 39% 6.0 mph N9.7 kmh N 7.6 mph12.2 kmh 30.26 in1024.7 mb 0.00 in0.0 mm 0.00 in0.0 mm 0.00 in0.0 mm
09:10 PM 74.3°F23.5°C 47.8°F8.8°C 39% 5.4 mph NNE8.7 kmh NNE 13.0 mph20.9 kmh 30.26 in1024.7 mb 0.00 in0.0 mm 0.00 in0.0 mm 0.00 in0.0 mm
09:15 PM 74.1°F23.4°C 48.3°F9.1°C 40% 9.8 mph NE15.8 kmh NE 15.9 mph25.6 kmh 30.26 in1024.7 mb 0.00 in0.0 mm 0.00 in0.0 mm 0.00 in0.0 mm
09:20 PM 73.9°F23.3°C 48.1°F8.9°C 40% 3.8 mph NE6.1 kmh NE 15.9 mph25.6 kmh 30.26 in1024.7 mb 0.00 in0.0 mm 0.00 in0.0 mm 0.00 in0.0 mm
09:25 PM 73.9°F23.3°C 48.1°F8.9°C 40% 6.0 mph NE9.7 kmh NE 10.7 mph17.2 kmh 30.27 in1025.1 mb 0.00 in0.0 mm 0.00 in0.0 mm 0.00 in0.0 mm
09:30 PM 73.9°F23.3°C 48.8°F9.3°C 41% 6.0 mph ENE9.7 kmh ENE 9.8 mph15.8 kmh 30.26 in1024.7 mb 0.00 in0.0 mm 0.00 in0.0 mm 0.00 in0.0 mm
09:35 PM 73.8°F23.2°C 48.6°F9.2°C 41% 4.5 mph ENE7.2 kmh ENE 9.2 mph14.8 kmh 30.27 in1025.1 mb 0.00 in0.0 mm 0.00 in0.0 mm 0.00 in0.0 mm
09:40 PM 73.4°F23.0°C 48.9°F9.4°C 42% 4.5 mph NE7.2 kmh NE 6.9 mph11.1 kmh 30.27 in1025.1 mb 0.00 in0.0 mm 0.00 in0.0 mm 0.00 in0.0 mm
09:45 PM 73.2°F22.9°C 48.1°F8.9°C 41% 4.5 mph ENE7.2 kmh ENE 7.6 mph12.2 kmh 30.27 in1025.1 mb 0.00 in0.0 mm 0.00 in0.0 mm 0.00 in0.0 mm
09:50 PM 73.0°F22.8°C 48.6°F9.2°C 42% 2.2 mph ENE3.5 kmh ENE 9.2 mph14.8 kmh 30.27 in1025.1 mb 0.00 in0.0 mm 0.00 in0.0 mm 0.00 in0.0 mm
09:55 PM 72.7°F22.6°C 48.3°F9.1°C 42% 3.1 mph NE5.0 kmh NE 9.2 mph14.8 kmh 30.27 in1025.1 mb 0.00 in0.0 mm 0.00 in0.0 mm 0.00 in0.0 mm
10:00 PM 72.7°F22.6°C 48.3°F9.1°C 42% 4.5 mph NE7.2 kmh NE 8.3 mph13.4 kmh 30.27 in1025.1 mb 0.00 in0.0 mm 0.00 in0.0 mm 0.00 in0.0 mm
10:05 PM 72.5°F22.5°C 48.8°F9.3°C 43% 2.2 mph NE3.5 kmh NE 8.3 mph13.4 kmh 30.27 in1025.1 mb 0.00 in0.0 mm 0.00 in0.0 mm 0.00 in0.0 mm
10:10 PM 72.3°F22.4°C 48.6°F9.2°C 43% 3.8 mph NE6.1 kmh NE 6.9 mph11.1 kmh 30.27 in1025.1 mb 0.00 in0.0 mm 0.00 in0.0 mm 0.00 in0.0 mm
10:15 PM 72.0°F22.2°C 48.9°F9.4°C 44% 3.8 mph NE6.1 kmh NE 6.9 mph11.1 kmh 30.27 in1025.1 mb 0.00 in0.0 mm 0.00 in0.0 mm 0.00 in0.0 mm
10:20 PM 71.4°F21.9°C 49.6°F9.8°C 46% 2.2 mph NE3.5 kmh NE 6.9 mph11.1 kmh 30.27 in1025.1 mb 0.00 in0.0 mm 0.00 in0.0 mm 0.00 in0.0 mm
10:25 PM 71.1°F21.7°C 49.3°F9.6°C 46% 2.2 mph NE3.5 kmh NE 5.4 mph8.7 kmh 30.27 in1025.1 mb 0.00 in0.0 mm 0.00 in0.0 mm 0.00 in0.0 mm
10:30 PM 70.7°F21.5°C 49.5°F9.7°C 47% 2.2 mph NE3.5 kmh NE 5.4 mph8.7 kmh 30.27 in1025.1 mb 0.00 in0.0 mm 0.00 in0.0 mm 0.00 in0.0 mm
10:35 PM 70.5°F21.4°C 49.9°F9.9°C 48% 2.2 mph NE3.5 kmh NE 9.2 mph14.8 kmh 30.27 in1025.1 mb 0.00 in0.0 mm 0.00 in0.0 mm 0.00 in0.0 mm
10:40 PM 70.3°F21.3°C 49.7°F9.8°C 48% 2.2 mph NE3.5 kmh NE 9.2 mph14.8 kmh 30.27 in1025.1 mb 0.00 in0.0 mm 0.00 in0.0 mm 0.00 in0.0 mm
10:45 PM 70.3°F21.3°C 50.3°F10.2°C 49% 2.2 mph ENE3.5 kmh ENE 6.9 mph11.1 kmh 30.28 in1025.4 mb 0.00 in0.0 mm 0.00 in0.0 mm 0.00 in0.0 mm
10:50 PM 70.3°F21.3°C 49.7°F9.8°C 48% 3.8 mph ENE6.1 kmh ENE 6.9 mph11.1 kmh 30.28 in1025.4 mb 0.00 in0.0 mm 0.00 in0.0 mm 0.00 in0.0 mm
10:55 PM 70.5°F21.4°C 49.9°F9.9°C 48% 3.8 mph ENE6.1 kmh ENE 6.9 mph11.1 kmh 30.27 in1025.1 mb 0.00 in0.0 mm 0.00 in0.0 mm 0.00 in0.0 mm
11:00 PM 70.7°F21.5°C 50.1°F10.1°C 48% 3.1 mph ENE5.0 kmh ENE 7.6 mph12.2 kmh 30.28 in1025.4 mb 0.00 in0.0 mm 0.00 in0.0 mm 0.00 in0.0 mm
11:05 PM 70.7°F21.5°C 50.1°F10.1°C 48% 3.1 mph NE5.0 kmh NE 7.6 mph12.2 kmh 30.28 in1025.4 mb 0.00 in0.0 mm 0.00 in0.0 mm 0.00 in0.0 mm
11:10 PM 70.7°F21.5°C 50.6°F10.3°C 49% 3.8 mph NE6.1 kmh NE 8.3 mph13.4 kmh 30.28 in1025.4 mb 0.00 in0.0 mm 0.00 in0.0 mm 0.00 in0.0 mm
11:15 PM 70.3°F21.3°C 50.3°F10.2°C 49% 2.2 mph NE3.5 kmh NE 8.3 mph13.4 kmh 30.27 in1025.1 mb 0.00 in0.0 mm 0.00 in0.0 mm 0.00 in0.0 mm
11:20 PM 70.2°F21.2°C 50.1°F10.1°C 49% 2.2 mph ENE3.5 kmh ENE 7.6 mph12.2 kmh 30.27 in1025.1 mb 0.00 in0.0 mm 0.00 in0.0 mm 0.00 in0.0 mm
11:25 PM 70.0°F21.1°C 50.5°F10.3°C 50% 3.1 mph ENE5.0 kmh ENE 6.0 mph9.7 kmh 30.28 in1025.4 mb 0.00 in0.0 mm 0.00 in0.0 mm 0.00 in0.0 mm
11:30 PM 70.0°F21.1°C 51.0°F10.6°C 51% 2.2 mph NE3.5 kmh NE 8.3 mph13.4 kmh 30.27 in1025.1 mb 0.00 in0.0 mm 0.00 in0.0 mm 0.00 in0.0 mm
11:35 PM 70.0°F21.1°C 51.0°F10.6°C 51% 3.1 mph NE5.0 kmh NE 8.3 mph13.4 kmh 30.27 in1025.1 mb 0.00 in0.0 mm 0.00 in0.0 mm 0.00 in0.0 mm
11:40 PM 70.0°F21.1°C 51.0°F10.6°C 51% 3.8 mph NE6.1 kmh NE 8.3 mph13.4 kmh 30.27 in1025.1 mb 0.00 in0.0 mm 0.00 in0.0 mm 0.00 in0.0 mm
11:45 PM 70.0°F21.1°C 51.0°F10.6°C 51% 3.1 mph NE5.0 kmh NE 8.3 mph13.4 kmh 30.27 in1025.1 mb 0.00 in0.0 mm 0.00 in0.0 mm 0.00 in0.0 mm
11:50 PM 70.0°F21.1°C 51.0°F10.6°C 51% 4.5 mph NE7.2 kmh NE 7.6 mph12.2 kmh 30.27 in1025.1 mb 0.00 in0.0 mm 0.00 in0.0 mm 0.00 in0.0 mm
11:55 PM 70.0°F21.1°C 51.0°F10.6°C 51% 3.1 mph NNE5.0 kmh NNE 7.6 mph12.2 kmh 30.27 in1025.1 mb 0.00 in0.0 mm 0.00 in0.0 mm 0.00 in0.0 mm